Hughesville, MD

4:41 AM EST on February 11, 2016 (GMT -0500)
Burnt Store | | Change Station
CLOSE
Current Station
Personal Weather Station
Location: Hughesville, MD
Elevation: 187 ft
Nearby Weather Stations

Elev 187 ft 38.53 °N, 76.82 °W | Updated 14 minutes ago

Clear
Clear
21.6 °F
Feels Like 16 °F
N
3.7
Wind Variable Wind from West

Today
High -- | Low -- °F
--% Chance of Precip.
Yesterday
High -- | Low -- °F
Precip. -- in
Pressure 30.01 in
Visibility 10.0 miles
Clouds Clear
Windchill 16 °F
Dew Point 8 °F
Humidity 54%
Rainfall 0.00 in
Snow Depth Not available.
7:03 AM 5:40 PM
Waxing Crescent, 10% visible
METAR K2W6 110937Z AUTO 28007KT 10SM CLR M05/M15 A3001 RMK AO1
Pressure 30.01 in
Visibility 10.0 miles
Clouds Clear
Windchill 16 °F
Dew Point 8 °F
Humidity 54%
Rainfall 0.00 in
Snow Depth Not available.
7:03 AM 5:40 PM
Waxing Crescent, 10% visible
METAR K2W6 110937Z AUTO 28007KT 10SM CLR M05/M15 A3001 RMK AO1

10-Day Weather Forecast

Almanac

Astronomy

Feb. 11, 2016 Rise Set
Actual Time
Civil Twilight
Nautical Twilight
Astronomical Twilight
Moon
Length of Visible Light
Length of Day
Tomorrow will be .
, % of the Moon is Illuminated

Today's Extremes

State Highs State Lows

Community

WunderPhotos

Upload Photos

1,892,030 photos uploaded!

WunderBlog® & News

Nearby

Air Quality

  Air Quality AQ Index Pollutant
Not available.

Snow Depth

Station Depth Elevation

Earthquake Activity

City Distance Mag. Time & Date
Minimum magnitude displayed is 2.5.

Coastal Water Temperatures

Place Temperature

Stations

Nearby Weather Stations

Station Location Temp. Windchill Dew Point Humidity Wind Precip. Elev Updated Type
                   

Watches & Warnings

There are currently no watches in effect.